createdAt,value
2018-05-24T07:54:38.817Z,20.90
2018-05-24T07:55:39.493Z,24.40
2018-05-24T07:56:40.103Z,23.20
2018-05-24T07:57:41.900Z,23.50
2018-05-24T07:58:42.499Z,22.50
2018-05-24T07:59:43.141Z,22.50
2018-05-24T08:00:43.739Z,22.60
2018-05-24T08:01:44.393Z,20.70
2018-05-24T08:02:45.105Z,21.50
2018-05-24T08:03:45.754Z,21.50
2018-05-24T08:04:46.452Z,21.40
2018-05-24T08:05:47.070Z,20.70
2018-05-24T08:06:47.807Z,20.60
2018-05-24T08:07:48.448Z,20.60
2018-05-24T08:08:49.159Z,19.50
2018-05-24T08:09:49.787Z,20.80
2018-05-24T08:10:50.436Z,19.80
2018-05-24T08:11:51.865Z,20.00
2018-05-24T08:12:52.487Z,19.30
2018-05-24T08:13:53.146Z,19.50
2018-05-24T08:14:53.802Z,19.50
2018-05-24T08:15:54.409Z,19.20
2018-05-24T08:16:55.022Z,20.10
2018-05-24T08:17:55.706Z,20.00
2018-05-24T08:18:56.350Z,19.40
2018-05-24T08:19:57.003Z,19.00
2018-05-24T08:20:57.628Z,18.30
2018-05-24T08:21:58.237Z,18.30
2018-05-24T08:22:58.856Z,19.70
2018-05-24T08:23:59.635Z,19.80
2018-05-24T08:25:00.227Z,19.70
2018-05-24T08:26:00.834Z,20.20
2018-05-24T08:27:01.481Z,19.70
2018-05-24T08:28:02.108Z,20.00
2018-05-24T08:29:02.695Z,20.50
2018-05-24T08:30:03.416Z,21.00
2018-05-24T08:31:04.057Z,20.30
2018-05-24T08:32:04.646Z,19.50
2018-05-24T08:33:05.248Z,21.50
2018-05-24T08:34:06.377Z,20.90
2018-05-24T08:35:07.175Z,20.70
2018-05-24T08:36:07.789Z,21.10
2018-05-24T08:38:08.765Z,21.10
2018-05-24T08:39:09.376Z,19.30
2018-05-24T08:40:09.958Z,20.10
2018-05-24T08:41:10.621Z,20.30
2018-05-24T08:42:11.252Z,20.00
2018-05-24T08:43:11.862Z,21.40
2018-05-24T08:44:12.552Z,21.40
2018-05-24T08:46:13.480Z,19.70
2018-05-24T08:47:14.208Z,21.10
2018-05-24T08:48:15.377Z,18.60
2018-05-24T08:49:16.005Z,18.40
2018-05-24T08:50:16.624Z,19.30
2018-05-24T08:51:17.264Z,19.50
2018-05-24T08:52:17.898Z,18.50
2018-05-24T08:53:18.556Z,19.70
2018-05-24T08:54:19.220Z,19.10
2018-05-24T08:55:19.798Z,20.80
2018-05-24T08:57:20.767Z,19.60
2018-05-24T08:58:21.386Z,18.00
2018-05-24T08:59:22.056Z,19.00
2018-05-24T09:00:22.720Z,21.30
2018-05-24T09:01:23.455Z,19.90
2018-05-24T09:03:24.321Z,18.90
2018-05-24T09:04:24.926Z,18.80
2018-05-24T09:05:25.535Z,18.20
2018-05-24T09:06:26.142Z,18.80
2018-05-24T09:07:26.763Z,19.40
2018-05-24T09:08:27.366Z,20.80
2018-05-24T09:09:27.991Z,21.30
2018-05-24T09:10:28.579Z,19.20
2018-05-24T09:11:29.215Z,17.90
2018-05-24T09:12:29.816Z,18.20
2018-05-24T09:13:30.401Z,19.40
2018-05-24T09:14:31.006Z,19.50
2018-05-24T09:15:31.618Z,18.50
2018-05-24T09:16:32.857Z,18.40
2018-05-24T09:17:33.498Z,19.40
2018-05-24T09:18:34.124Z,18.90
2018-05-24T09:19:34.751Z,19.60
2018-05-24T09:20:35.383Z,19.40
2018-05-24T09:21:35.988Z,18.10
2018-05-24T09:22:36.614Z,19.40
2018-05-24T09:23:47.264Z,16.70
2018-05-24T09:24:47.986Z,18.00
2018-05-24T09:25:48.609Z,16.50
2018-05-24T09:26:49.190Z,17.40
2018-05-24T09:27:49.832Z,17.70
2018-05-24T09:28:50.471Z,17.30
2018-05-24T09:29:51.046Z,17.50
2018-05-24T09:30:51.671Z,16.80
2018-05-24T09:31:52.341Z,17.60
2018-05-24T09:32:52.973Z,17.10
2018-05-24T09:33:53.687Z,18.30
2018-05-24T09:34:55.064Z,19.00
2018-05-24T09:35:55.669Z,18.30
2018-05-24T09:36:56.307Z,17.40
2018-05-24T09:37:56.892Z,16.70
2018-05-24T09:38:57.543Z,16.40
2018-05-24T09:39:58.120Z,15.90
2018-05-24T09:40:59.660Z,15.00
2018-05-24T09:42:00.320Z,16.40
2018-05-24T09:43:00.924Z,16.10
2018-05-24T09:44:01.632Z,17.30
2018-05-24T09:45:02.428Z,16.50
2018-05-24T09:46:03.006Z,16.10
2018-05-24T09:47:03.619Z,17.00
2018-05-24T09:48:04.198Z,16.80
2018-05-24T09:49:04.831Z,16.80
2018-05-24T09:50:05.439Z,16.00
2018-05-24T09:51:05.995Z,15.20
2018-05-24T09:52:06.615Z,15.60
2018-05-24T09:53:08.281Z,14.90
2018-05-24T09:54:08.909Z,14.30
2018-05-24T09:55:10.283Z,13.80
2018-05-24T09:57:11.261Z,13.80
2018-05-24T09:58:11.898Z,14.30
2018-05-24T09:59:12.511Z,14.50
2018-05-24T10:00:13.121Z,14.70
2018-05-24T10:01:13.831Z,14.40
2018-05-24T10:03:14.709Z,13.50
2018-05-24T10:04:15.302Z,15.00
2018-05-24T10:06:16.207Z,13.40
2018-05-24T10:07:16.903Z,13.60
2018-05-24T10:08:17.544Z,13.30
2018-05-24T10:09:18.130Z,13.80
2018-05-24T10:10:18.753Z,13.80
2018-05-24T10:11:19.342Z,13.50
2018-05-24T10:12:19.952Z,14.40
2018-05-24T10:13:20.584Z,14.20
2018-05-24T10:14:21.228Z,14.00
2018-05-24T10:15:21.899Z,13.40
2018-05-24T10:16:22.541Z,15.00
2018-05-24T10:17:23.195Z,14.00
2018-05-24T10:18:23.798Z,14.40
2018-05-24T10:19:24.426Z,14.10
2018-05-24T10:20:25.113Z,14.30
2018-05-24T10:21:26.440Z,15.10
2018-05-24T10:22:27.057Z,14.60
2018-05-24T10:23:27.721Z,15.50
2018-05-24T10:24:28.422Z,14.80
2018-05-24T10:25:29.092Z,13.00
2018-05-24T10:27:29.999Z,15.60
2018-05-24T10:28:30.609Z,14.30
2018-05-24T10:29:31.262Z,13.90
2018-05-24T10:30:31.913Z,13.60
2018-05-24T10:31:32.660Z,13.80
2018-05-24T10:32:33.258Z,13.80
2018-05-24T10:33:36.206Z,13.60
2018-05-24T10:35:43.212Z,15.20
2018-05-24T10:36:43.797Z,16.30
2018-05-24T10:37:44.387Z,15.20
2018-05-24T10:38:44.965Z,14.40
2018-05-24T10:39:45.608Z,13.30
2018-05-24T10:40:46.236Z,13.40
2018-05-24T10:41:46.933Z,13.50
2018-05-24T10:42:47.565Z,14.20
2018-05-24T10:43:48.145Z,14.50
2018-05-24T10:44:48.826Z,13.90
2018-05-24T10:45:49.466Z,13.60
2018-05-24T10:46:50.059Z,14.20
2018-05-24T10:47:50.667Z,14.90
2018-05-24T10:48:51.339Z,14.40
2018-05-24T10:49:51.959Z,13.80
2018-05-24T10:50:52.617Z,13.80
2018-05-24T10:51:53.204Z,15.70
2018-05-24T10:52:53.800Z,14.90
2018-05-24T10:53:54.402Z,14.40
2018-05-24T10:54:55.027Z,13.80
2018-05-24T10:55:55.621Z,12.70
2018-05-24T10:56:56.254Z,13.80
2018-05-24T10:57:56.896Z,13.50
2018-05-24T10:58:57.503Z,13.00
2018-05-24T10:59:58.176Z,11.90
2018-05-24T11:00:58.780Z,11.90
2018-05-24T11:01:59.388Z,11.70
2018-05-24T11:03:00.076Z,11.10
2018-05-24T11:04:00.819Z,12.70
2018-05-24T11:05:01.420Z,11.60
2018-05-24T11:06:02.114Z,12.10
2018-05-24T11:07:02.699Z,11.70
2018-05-24T11:08:03.355Z,12.10
2018-05-24T11:09:03.961Z,11.50
2018-05-24T11:10:04.596Z,12.60
2018-05-24T11:11:05.208Z,12.50
2018-05-24T11:12:05.797Z,13.40
2018-05-24T11:13:06.465Z,12.50
2018-05-24T11:14:07.059Z,12.00
2018-05-24T11:16:07.954Z,11.20
2018-05-24T11:17:08.523Z,11.30
2018-05-24T11:19:09.433Z,9.50
2018-05-24T11:20:10.676Z,10.30
2018-05-24T11:21:11.288Z,10.60
2018-05-24T11:22:11.910Z,10.10
2018-05-24T11:23:12.527Z,9.80
2018-05-24T11:24:13.169Z,9.20
2018-05-24T11:25:13.778Z,8.00
2018-05-24T11:27:14.709Z,7.50
2018-05-24T11:28:15.337Z,6.90
2018-05-24T11:29:15.955Z,5.70
2018-05-24T11:30:16.592Z,6.20
2018-05-24T11:31:17.221Z,5.10
2018-05-24T11:32:17.837Z,5.60
2018-05-24T11:33:18.408Z,6.40
2018-05-24T11:34:19.028Z,6.40
2018-05-24T11:35:19.614Z,7.10
2018-05-24T11:37:20.552Z,7.90
2018-05-24T11:38:21.227Z,7.70
2018-05-24T11:39:21.839Z,7.50
2018-05-24T11:40:22.993Z,8.50
2018-05-24T11:41:23.579Z,10.00
2018-05-24T11:42:24.236Z,8.40
2018-05-24T11:43:25.076Z,9.20
2018-05-24T11:44:25.569Z,9.10
2018-05-24T11:45:26.166Z,7.30
2018-05-24T11:46:26.741Z,7.40
2018-05-24T11:47:27.344Z,6.70
2018-05-24T11:48:27.952Z,6.60
2018-05-24T11:49:28.550Z,7.50
2018-05-24T11:50:29.150Z,8.30
2018-05-24T11:51:29.748Z,8.50
2018-05-24T11:52:30.325Z,8.70
2018-05-24T11:53:30.953Z,8.20
2018-05-24T11:54:31.585Z,7.90
2018-05-24T11:55:32.187Z,7.50
2018-05-24T11:56:32.745Z,7.70
2018-05-24T11:57:33.391Z,7.10
2018-05-24T11:58:34.016Z,7.00
2018-05-24T11:59:34.595Z,6.80
2018-05-24T12:00:35.197Z,7.20
2018-05-24T12:01:35.835Z,6.90
2018-05-24T12:02:36.486Z,7.10
2018-05-24T12:03:37.102Z,7.10
2018-05-24T12:04:37.702Z,7.10
2018-05-24T12:05:38.276Z,7.00
2018-05-24T12:06:38.907Z,6.70
2018-05-24T12:07:39.572Z,6.70
2018-05-24T12:08:40.172Z,5.90
2018-05-24T12:09:40.796Z,6.70
2018-05-24T12:11:41.694Z,6.20
2018-05-24T12:12:42.301Z,6.40
2018-05-24T12:13:42.905Z,6.00
2018-05-24T12:14:43.473Z,5.40
2018-05-24T12:15:44.093Z,5.60
2018-05-24T12:16:45.276Z,6.20
2018-05-24T12:17:45.864Z,6.10
2018-05-24T12:18:46.467Z,6.00
2018-05-24T12:19:47.035Z,6.20
2018-05-24T12:20:47.616Z,5.70
2018-05-24T12:21:48.190Z,5.40
2018-05-24T12:22:48.795Z,5.90
2018-05-24T12:23:49.511Z,5.30
2018-05-24T12:24:50.069Z,5.60
2018-05-24T12:25:50.678Z,5.90
2018-05-24T12:26:51.277Z,5.60
2018-05-24T12:27:51.838Z,5.20
2018-05-24T12:28:52.440Z,5.60
2018-05-24T12:29:53.017Z,5.30
2018-05-24T12:30:53.609Z,5.30
2018-05-24T12:31:54.219Z,5.00
2018-05-24T12:32:54.885Z,5.30
2018-05-24T12:33:55.493Z,5.30
2018-05-24T12:34:56.163Z,5.50
2018-05-24T12:35:56.739Z,7.00
2018-05-24T12:36:57.325Z,7.70
2018-05-24T12:37:57.926Z,8.20
2018-05-24T12:38:58.512Z,7.80
2018-05-24T12:39:59.077Z,7.50
2018-05-24T12:40:59.726Z,9.10
2018-05-24T12:42:00.252Z,7.40
2018-05-24T12:43:00.858Z,10.20
2018-05-24T12:44:01.423Z,7.60
2018-05-24T12:45:01.996Z,7.60
2018-05-24T12:46:02.601Z,8.30
2018-05-24T12:47:03.225Z,10.40
2018-05-24T12:48:03.828Z,7.60
2018-05-24T12:50:04.683Z,10.10
2018-05-24T12:51:05.247Z,8.90
2018-05-24T12:52:05.805Z,11.40
2018-05-24T12:53:06.393Z,9.30
2018-05-24T12:54:07.028Z,8.00
2018-05-24T12:55:07.616Z,10.10
2018-05-24T12:56:08.218Z,7.90
2018-05-24T12:58:09.091Z,8.50
2018-05-24T12:59:09.659Z,11.00
2018-05-24T13:00:10.491Z,8.40
2018-05-24T13:01:11.125Z,9.20
2018-05-24T13:02:11.711Z,9.40
2018-05-24T13:03:12.312Z,7.90
2018-05-24T13:04:13.039Z,9.30
2018-05-24T13:05:14.559Z,7.70
2018-05-24T13:06:15.175Z,7.30
2018-05-24T13:07:15.779Z,7.40
2018-05-24T13:08:16.353Z,12.00
2018-05-24T13:10:17.188Z,7.90
2018-05-24T13:12:18.099Z,7.50
2018-05-24T13:13:18.716Z,6.20
2018-05-24T13:14:19.305Z,5.80
2018-05-24T13:16:20.159Z,3.60
2018-05-24T13:17:21.767Z,4.10
2018-05-24T13:18:22.349Z,4.70
2018-05-24T13:19:22.954Z,4.70
2018-05-24T13:20:23.549Z,4.70
2018-05-24T13:21:24.165Z,8.10
2018-05-24T13:22:24.784Z,8.50
2018-05-24T13:23:25.358Z,7.70
2018-05-24T13:24:26.002Z,6.90
2018-05-24T13:25:26.596Z,7.10
2018-05-24T13:27:27.478Z,7.10
2018-05-24T13:28:28.108Z,6.10
2018-05-24T13:29:28.691Z,6.00
2018-05-24T13:31:29.573Z,5.20
2018-05-24T13:32:30.219Z,4.20
2018-05-24T13:33:30.773Z,4.00
2018-05-24T13:34:32.195Z,4.50
2018-05-24T13:35:32.771Z,4.00
2018-05-24T13:36:33.398Z,4.40
2018-05-24T13:37:33.980Z,4.30
2018-05-24T13:38:34.562Z,4.70
2018-05-24T13:39:35.172Z,4.90
2018-05-24T13:40:35.751Z,5.00
2018-05-24T13:42:36.673Z,5.20
2018-05-24T13:43:37.280Z,5.60
2018-05-24T13:44:37.881Z,6.20
2018-05-24T13:45:38.458Z,5.70
2018-05-24T13:46:39.108Z,5.60
2018-05-24T13:47:39.719Z,6.10
2018-05-24T13:48:40.287Z,6.30
2018-05-24T13:50:41.156Z,6.00
2018-05-24T13:51:41.787Z,6.00
2018-05-24T13:52:42.997Z,5.60
2018-05-24T13:53:43.623Z,5.70
2018-05-24T13:54:44.192Z,5.20
2018-05-24T13:55:44.767Z,5.20
2018-05-24T13:56:45.430Z,6.10
2018-05-24T13:57:46.033Z,4.60
2018-05-24T13:58:46.748Z,5.40
2018-05-24T13:59:47.304Z,4.70
2018-05-24T14:00:47.897Z,4.30
2018-05-24T14:01:48.522Z,4.10
2018-05-24T14:02:49.257Z,4.70
2018-05-24T14:03:49.946Z,4.10
2018-05-24T14:04:50.589Z,4.60
2018-05-24T14:05:51.165Z,4.60
2018-05-24T14:06:51.903Z,4.30
2018-05-24T14:07:52.478Z,6.20
2018-05-24T14:08:53.098Z,4.20
2018-05-24T14:09:53.694Z,6.20
2018-05-24T14:10:54.293Z,3.80
2018-05-24T14:11:54.896Z,3.80
2018-05-24T14:12:55.474Z,3.60
2018-05-24T14:13:56.079Z,3.90
2018-05-24T14:14:56.657Z,3.70
2018-05-24T14:15:57.271Z,3.80
2018-05-24T14:16:57.849Z,3.50
2018-05-24T14:18:58.862Z,4.70
2018-05-24T14:19:59.487Z,3.00
2018-05-24T14:21:00.067Z,3.30
2018-05-24T14:22:00.664Z,3.20
2018-05-24T14:23:02.034Z,2.80
2018-05-24T14:24:02.628Z,2.70
2018-05-24T14:25:03.227Z,2.60
2018-05-24T14:26:03.820Z,2.90
2018-05-24T14:27:04.503Z,2.60
2018-05-24T14:28:05.161Z,2.70
2018-05-24T14:29:05.732Z,2.70
2018-05-24T14:30:06.326Z,2.50
2018-05-24T14:31:06.890Z,2.40
2018-05-24T14:32:08.247Z,2.70
2018-05-24T14:33:09.087Z,3.10
2018-05-24T14:34:09.940Z,3.60
2018-05-24T14:35:10.507Z,3.50
2018-05-24T14:36:11.133Z,3.50
2018-05-24T14:37:11.716Z,3.00
2018-05-24T14:38:12.315Z,3.00
2018-05-24T14:39:13.096Z,3.60
2018-05-24T14:40:13.690Z,3.30
2018-05-24T14:42:14.559Z,3.20
2018-05-24T14:43:15.123Z,3.20
2018-05-24T14:44:15.720Z,2.80
2018-05-24T14:45:16.347Z,3.20
2018-05-24T14:46:16.985Z,3.20
2018-05-24T14:47:17.596Z,3.30
2018-05-24T14:48:18.159Z,3.00
2018-05-24T14:49:18.718Z,3.90
2018-05-24T14:50:19.283Z,3.90
2018-05-24T14:51:19.888Z,3.40
2018-05-24T14:52:20.504Z,3.60
2018-05-24T14:53:21.122Z,3.50
2018-05-24T14:54:21.748Z,3.50
2018-05-24T14:55:22.331Z,3.60
2018-05-24T14:56:23.004Z,3.20
2018-05-24T14:57:23.623Z,4.10
2018-05-24T14:58:24.290Z,3.80
2018-05-24T14:59:27.829Z,3.80
2018-05-24T15:00:28.442Z,3.80
2018-05-24T15:01:29.035Z,3.50
2018-05-24T15:02:29.640Z,3.20
2018-05-24T15:03:30.203Z,3.70
2018-05-24T15:04:30.814Z,25.20
2018-05-24T15:05:31.440Z,15.80
2018-05-24T15:06:32.077Z,4.00
2018-05-24T15:07:32.707Z,3.10
2018-05-24T15:08:33.335Z,3.80
2018-05-24T15:09:33.954Z,3.20
2018-05-24T15:10:34.583Z,3.40
2018-05-24T15:11:35.178Z,3.00
2018-05-24T15:12:36.995Z,3.10
2018-05-24T15:13:38.333Z,4.60
2018-05-24T15:14:39.028Z,3.40
2018-05-24T15:15:39.724Z,3.40
2018-05-24T15:16:40.380Z,3.30
2018-05-24T15:17:41.058Z,4.70
2018-05-24T15:18:41.704Z,3.30
2018-05-24T15:19:42.338Z,3.70
2018-05-24T15:20:42.909Z,3.80
2018-05-24T15:21:43.548Z,4.20
2018-05-24T15:22:44.159Z,3.90
2018-05-24T15:23:50.208Z,4.10
2018-05-24T15:25:51.184Z,3.50
2018-05-24T15:26:51.754Z,3.50
2018-05-24T15:27:52.477Z,3.60
2018-05-24T15:28:53.060Z,3.50
2018-05-24T15:29:53.760Z,3.30
2018-05-24T15:30:54.381Z,3.50
2018-05-24T15:31:55.012Z,3.50
2018-05-24T15:32:56.744Z,3.60
2018-05-24T15:33:58.917Z,4.60
2018-05-24T15:34:59.537Z,5.50
2018-05-24T15:36:00.108Z,5.40
2018-05-24T15:37:00.694Z,4.80
2018-05-24T15:38:01.348Z,5.60
2018-05-24T15:39:02.653Z,5.50
2018-05-24T15:40:03.253Z,6.50
2018-05-24T15:41:03.864Z,5.40
2018-05-24T15:42:04.521Z,6.60
2018-05-24T15:43:05.190Z,5.70
2018-05-24T15:44:06.443Z,5.80
2018-05-24T15:45:07.809Z,6.70
2018-05-24T15:46:08.439Z,5.80
2018-05-24T15:47:09.042Z,5.20
2018-05-24T15:48:09.684Z,5.30
2018-05-24T15:49:10.313Z,6.80
2018-05-24T15:50:10.997Z,5.70
2018-05-24T15:51:11.899Z,5.80
2018-05-24T15:53:12.794Z,5.30
2018-05-24T15:54:13.404Z,5.00
2018-05-24T15:55:14.032Z,5.00
2018-05-24T15:56:14.639Z,5.30
2018-05-24T15:57:15.232Z,5.70
2018-05-24T15:58:15.897Z,5.20
2018-05-24T15:59:16.482Z,4.90
2018-05-24T16:00:17.184Z,5.10
2018-05-24T16:01:17.807Z,4.90
2018-05-24T16:02:18.390Z,5.00
2018-05-24T16:03:19.011Z,4.90
2018-05-24T16:04:19.616Z,5.00
2018-05-24T16:05:20.225Z,4.90
2018-05-24T16:06:20.841Z,4.70
2018-05-24T16:07:21.445Z,4.80
2018-05-24T16:08:22.051Z,5.10
2018-05-24T16:09:22.935Z,4.70
2018-05-24T16:10:23.591Z,5.20
2018-05-24T16:12:24.474Z,5.30
2018-05-24T16:13:25.070Z,5.30
2018-05-24T16:14:25.664Z,5.50
2018-05-24T16:15:26.317Z,5.20
2018-05-24T16:16:26.924Z,5.00
2018-05-24T16:17:28.327Z,5.00
2018-05-24T16:18:28.936Z,5.20
2018-05-24T16:19:29.550Z,4.90
2018-05-24T16:20:30.203Z,5.70
2018-05-24T16:21:30.830Z,4.20
2018-05-24T16:22:31.702Z,5.30
2018-05-24T16:23:32.368Z,4.20
2018-05-24T16:24:32.954Z,4.30
2018-05-24T16:25:33.561Z,4.40
2018-05-24T16:26:34.186Z,4.80
2018-05-24T16:27:34.890Z,4.20
2018-05-24T16:28:35.611Z,4.30
2018-05-24T16:29:36.269Z,6.10
2018-05-24T16:30:36.951Z,3.90
2018-05-24T16:31:37.536Z,4.20
2018-05-24T16:32:38.126Z,5.70
2018-05-24T16:33:38.769Z,4.10
2018-05-24T16:34:39.485Z,4.10
2018-05-24T16:35:40.079Z,3.30
2018-05-24T16:36:40.715Z,5.90
2018-05-24T16:37:41.522Z,3.90
2018-05-24T16:38:42.130Z,3.10
2018-05-24T16:39:42.852Z,3.10
2018-05-24T16:40:43.463Z,3.60
2018-05-24T16:41:44.108Z,3.10
2018-05-24T16:42:44.797Z,2.90
2018-05-24T16:43:45.488Z,3.70
2018-05-24T16:44:46.089Z,3.00
2018-05-24T16:45:46.746Z,2.80
2018-05-24T16:46:47.353Z,2.90
2018-05-24T16:47:48.490Z,2.70
2018-05-24T16:48:49.130Z,3.00
2018-05-24T16:49:49.723Z,6.10
2018-05-24T16:50:50.337Z,3.30
2018-05-24T16:51:50.921Z,4.30
2018-05-24T16:52:51.559Z,2.70
2018-05-24T16:54:52.463Z,2.90
2018-05-24T16:55:53.055Z,3.40
2018-05-24T16:56:53.657Z,2.60
2018-05-24T16:58:54.530Z,2.80
2018-05-24T16:59:55.116Z,2.50
2018-05-24T17:00:55.789Z,3.80
2018-05-24T17:01:56.391Z,2.60
2018-05-24T17:02:57.015Z,3.10
2018-05-24T17:03:57.622Z,2.80
2018-05-24T17:04:58.201Z,4.10
2018-05-24T17:05:58.782Z,2.90
2018-05-24T17:06:59.375Z,2.70
2018-05-24T17:08:00.006Z,3.80
2018-05-24T17:09:00.603Z,2.90
2018-05-24T17:10:01.201Z,3.70
